createdAt,value
2018-11-05T00:00:46.930Z,88.87
2018-11-05T00:03:16.099Z,88.95
2018-11-05T00:05:45.224Z,89.89
2018-11-05T00:08:14.341Z,89.51
2018-11-05T00:10:43.545Z,89.31
2018-11-05T00:13:12.684Z,89.56
2018-11-05T00:15:41.820Z,89.55
2018-11-05T00:18:10.958Z,89.36
2018-11-05T00:20:40.070Z,88.84
2018-11-05T00:23:09.205Z,89.01
2018-11-05T00:25:38.348Z,89.04
2018-11-05T00:28:07.475Z,88.73
2018-11-05T00:30:36.613Z,89.26
2018-11-05T00:33:05.865Z,89.08
2018-11-05T00:35:35.000Z,89.31
2018-11-05T00:38:04.149Z,89.14
2018-11-05T00:40:33.293Z,88.88
2018-11-05T00:43:02.420Z,89.01
2018-11-05T00:45:31.577Z,89.25
2018-11-05T00:48:00.709Z,89.01
2018-11-05T00:50:29.824Z,89.29
2018-11-05T00:52:58.946Z,88.99
2018-11-05T00:55:28.077Z,88.52
2018-11-05T00:57:57.231Z,88.48
2018-11-05T01:00:26.389Z,88.20
2018-11-05T01:02:55.536Z,88.70
2018-11-05T01:05:24.708Z,89.01
2018-11-05T01:07:53.852Z,88.79
2018-11-05T01:10:23.022Z,88.51
2018-11-05T01:12:52.173Z,88.64
2018-11-05T01:15:21.323Z,88.50
2018-11-05T01:17:50.481Z,88.61
2018-11-05T01:20:19.656Z,88.06
2018-11-05T01:22:54.469Z,88.29
2018-11-05T01:25:23.592Z,88.11
2018-11-05T01:27:52.734Z,87.95
2018-11-05T01:30:22.029Z,87.97
2018-11-05T01:32:51.149Z,88.06
2018-11-05T01:35:20.509Z,88.14
2018-11-05T01:37:49.665Z,87.60
2018-11-05T01:40:18.917Z,87.80
2018-11-05T01:42:48.114Z,87.54
2018-11-05T01:45:17.265Z,87.70
2018-11-05T01:47:46.406Z,87.43
2018-11-05T01:50:16.613Z,86.39
2018-11-05T01:52:45.853Z,86.25
2018-11-05T01:55:14.993Z,86.62
2018-11-05T01:57:44.201Z,86.86
2018-11-05T02:00:16.402Z,86.85
2018-11-05T02:02:46.416Z,87.22
2018-11-05T02:05:15.577Z,87.34
2018-11-05T02:07:45.809Z,87.35
2018-11-05T02:10:16.249Z,87.38
2018-11-05T02:12:45.344Z,87.41
2018-11-05T02:15:14.724Z,87.46
2018-11-05T02:17:44.968Z,87.73
2018-11-05T02:20:15.100Z,87.25
2018-11-05T02:22:44.294Z,87.26
2018-11-05T02:25:14.169Z,86.97
2018-11-05T02:27:43.685Z,86.78
2018-11-05T02:30:17.208Z,86.96
2018-11-05T02:32:46.796Z,87.29
2018-11-05T02:35:16.937Z,87.44
2018-11-05T02:37:47.045Z,87.02
2018-11-05T02:40:17.585Z,86.97
2018-11-05T02:42:47.483Z,87.38
2018-11-05T02:45:17.806Z,87.63
2018-11-05T02:47:46.989Z,87.56
2018-11-05T02:50:16.589Z,87.46
2018-11-05T02:52:46.555Z,87.82
2018-11-05T02:55:15.760Z,87.53
2018-11-05T02:57:44.913Z,87.66
2018-11-05T03:00:16.765Z,87.01
2018-11-05T03:02:45.940Z,86.93
2018-11-05T03:05:16.198Z,87.18
2018-11-05T03:07:46.196Z,86.95
2018-11-05T03:10:15.516Z,86.34
2018-11-05T03:12:45.625Z,86.86
2018-11-05T03:15:16.052Z,87.61
2018-11-05T03:17:45.244Z,87.78
2018-11-05T03:20:15.245Z,88.21
2018-11-05T03:22:44.873Z,88.41
2018-11-05T03:25:14.038Z,88.66
2018-11-05T03:27:43.226Z,88.87
2018-11-05T03:30:15.701Z,88.58
2018-11-05T03:32:44.836Z,88.81
2018-11-05T03:35:14.425Z,88.85
2018-11-05T03:37:44.555Z,88.98
2018-11-05T03:40:14.144Z,89.14
2018-11-05T03:42:43.583Z,89.58
2018-11-05T03:45:14.080Z,89.03
2018-11-05T03:47:43.491Z,88.87
2018-11-05T03:50:15.582Z,88.77
2018-11-05T03:52:45.581Z,89.09
2018-11-05T03:55:15.704Z,88.33
2018-11-05T03:57:44.874Z,89.07
2018-11-05T04:00:15.303Z,89.85
2018-11-05T04:02:44.484Z,89.10
2018-11-05T04:05:13.613Z,88.50
2018-11-05T04:07:42.781Z,88.37
2018-11-05T04:10:13.037Z,88.54
2018-11-05T04:12:42.220Z,88.85
2018-11-05T04:15:11.624Z,88.67
2018-11-05T04:17:40.780Z,88.61
2018-11-05T04:20:12.405Z,88.90
2018-11-05T04:22:42.238Z,89.10
2018-11-05T04:25:11.447Z,88.58
2018-11-05T04:27:40.706Z,88.61
2018-11-05T04:30:12.863Z,88.29
2018-11-05T04:32:42.254Z,87.92
2018-11-05T04:35:11.855Z,87.96
2018-11-05T04:37:41.046Z,88.69
2018-11-05T04:40:11.269Z,88.53
2018-11-05T04:42:40.600Z,88.69
2018-11-05T04:45:11.308Z,87.54
2018-11-05T04:47:40.752Z,87.64
2018-11-05T04:50:11.453Z,87.78
2018-11-05T04:52:41.301Z,87.64
2018-11-05T04:55:10.429Z,87.66
2018-11-05T04:57:39.884Z,87.83
2018-11-05T05:00:13.057Z,87.73
2018-11-05T05:02:42.669Z,87.42
2018-11-05T05:05:12.893Z,86.96
2018-11-05T05:07:42.048Z,86.19
2018-11-05T05:10:11.391Z,86.37
2018-11-05T05:12:41.637Z,86.89
2018-11-05T05:15:11.336Z,86.58
2018-11-05T05:17:40.916Z,86.58
2018-11-05T05:20:12.901Z,85.63
2018-11-05T05:22:42.450Z,86.26
2018-11-05T05:25:11.481Z,85.85
2018-11-05T05:27:40.757Z,85.61
2018-11-05T05:30:14.533Z,85.71
2018-11-05T05:32:44.183Z,85.51
2018-11-05T05:35:13.309Z,85.88
2018-11-05T05:37:43.139Z,85.56
2018-11-05T05:40:12.405Z,85.26
2018-11-05T05:42:41.700Z,85.64
2018-11-05T05:45:12.254Z,84.73
2018-11-05T05:47:42.041Z,85.19
2018-11-05T05:50:14.997Z,85.40
2018-11-05T05:52:45.361Z,85.35
2018-11-05T05:55:14.661Z,84.51
2018-11-05T05:57:44.061Z,85.34
2018-11-05T06:00:14.698Z,84.85
2018-11-05T06:02:43.839Z,85.24
2018-11-05T06:05:13.922Z,85.28
2018-11-05T06:07:43.431Z,85.18
2018-11-05T06:10:13.949Z,85.28
2018-11-05T06:12:43.121Z,85.28
2018-11-05T06:15:14.257Z,85.66
2018-11-05T06:17:43.389Z,85.41
2018-11-05T06:20:15.416Z,85.22
2018-11-05T06:22:45.272Z,84.92
2018-11-05T06:25:14.649Z,85.23
2018-11-05T06:27:43.838Z,85.12
2018-11-05T06:30:16.652Z,84.64
2018-11-05T06:32:47.081Z,85.20
2018-11-05T06:35:16.342Z,85.43
2018-11-05T06:37:45.481Z,84.69
2018-11-05T06:40:16.821Z,85.21
2018-11-05T06:42:46.337Z,85.04
2018-11-05T06:45:16.661Z,84.13
2018-11-05T06:47:46.453Z,84.59
2018-11-05T06:50:18.323Z,84.78
2018-11-05T06:52:47.562Z,84.98
2018-11-05T06:55:16.957Z,85.21
2018-11-05T06:57:46.218Z,85.18
2018-11-05T07:00:17.662Z,84.84
2018-11-05T07:02:46.905Z,84.44
2018-11-05T07:05:16.361Z,84.42
2018-11-05T07:07:45.563Z,84.45
2018-11-05T07:10:15.584Z,84.29
2018-11-05T07:12:45.185Z,82.99
2018-11-05T07:15:15.454Z,84.86
2018-11-05T07:17:45.613Z,83.76
2018-11-05T07:20:16.828Z,84.73
2018-11-05T07:22:46.778Z,83.05
2018-11-05T07:25:17.005Z,83.30
2018-11-05T07:27:46.263Z,84.12
2018-11-05T07:30:18.219Z,84.22
2018-11-05T07:32:48.105Z,84.87
2018-11-05T07:35:17.249Z,84.72
2018-11-05T07:37:46.417Z,85.28
2018-11-05T07:40:16.709Z,84.71
2018-11-05T07:42:45.982Z,84.17
2018-11-05T07:45:19.499Z,85.33
2018-11-05T07:47:48.921Z,85.15
2018-11-05T07:50:19.031Z,86.38
2018-11-05T07:52:48.221Z,86.79
2018-11-05T07:55:18.489Z,85.92
2018-11-05T07:57:48.594Z,84.86
2018-11-05T08:00:23.030Z,85.84
2018-11-05T08:02:53.770Z,85.55
2018-11-05T08:05:23.582Z,84.76
2018-11-05T08:07:52.842Z,84.78
2018-11-05T08:10:22.037Z,84.39
2018-11-05T08:12:51.181Z,83.87
2018-11-05T08:15:21.674Z,83.16
2018-11-05T08:17:51.660Z,83.54
2018-11-05T08:20:20.828Z,82.87
2018-11-05T08:22:49.965Z,83.71
2018-11-05T08:25:19.148Z,83.74
2018-11-05T08:27:48.323Z,84.34
2018-11-05T08:30:21.253Z,84.78
2018-11-05T08:32:50.425Z,84.11
2018-11-05T08:35:19.605Z,84.06
2018-11-05T08:37:49.048Z,84.13
2018-11-05T08:40:21.085Z,84.23
2018-11-05T08:42:51.025Z,84.69
2018-11-05T08:45:22.587Z,84.67
2018-11-05T08:47:51.754Z,84.28
2018-11-05T08:50:22.236Z,83.84
2018-11-05T08:52:51.161Z,84.71
2018-11-05T08:55:21.639Z,83.95
2018-11-05T08:57:50.864Z,83.57
2018-11-05T09:00:25.449Z,83.52
2018-11-05T09:02:55.353Z,83.55
2018-11-05T09:05:24.769Z,82.53
2018-11-05T09:07:54.682Z,83.66
2018-11-05T09:10:24.087Z,83.20
2018-11-05T09:12:52.997Z,83.33
2018-11-05T09:15:22.910Z,82.33
2018-11-05T09:17:52.413Z,81.10
2018-11-05T09:20:21.567Z,79.23
2018-11-05T09:22:51.389Z,78.60
2018-11-05T09:25:20.592Z,76.91
2018-11-05T09:27:50.103Z,74.45
2018-11-05T09:30:20.689Z,75.07
2018-11-05T09:32:49.841Z,72.65
2018-11-05T09:35:18.993Z,72.11
2018-11-05T09:37:48.132Z,70.88
2018-11-05T09:40:19.994Z,66.37
2018-11-05T09:42:49.491Z,63.99
2018-11-05T09:45:20.709Z,61.28
2018-11-05T09:47:49.809Z,57.21
2018-11-05T09:50:19.281Z,55.71
2018-11-05T09:52:47.768Z,54.23
2018-11-05T09:55:16.764Z,53.91
2018-11-05T09:57:45.224Z,53.97
2018-11-05T10:00:15.649Z,52.17
2018-11-05T10:02:49.765Z,51.66
2018-11-05T10:05:18.612Z,51.45
2018-11-05T10:07:46.956Z,51.69
2018-11-05T10:10:16.192Z,52.36
2018-11-05T10:12:44.940Z,52.44
2018-11-05T10:15:14.413Z,53.02
2018-11-05T10:17:42.902Z,52.47
2018-11-05T10:20:14.052Z,52.03
2018-11-05T10:22:43.034Z,53.20
2018-11-05T10:25:12.246Z,54.11
2018-11-05T10:27:40.688Z,55.18
2018-11-05T10:30:11.159Z,54.86
2018-11-05T10:32:40.191Z,54.76
2018-11-05T10:35:08.655Z,53.91
2018-11-05T10:37:37.307Z,53.41
2018-11-05T10:40:08.607Z,53.18
2018-11-05T10:42:37.057Z,53.54
2018-11-05T10:45:06.848Z,52.87
2018-11-05T10:47:35.517Z,53.64
2018-11-05T10:50:04.024Z,52.68
2018-11-05T10:52:32.502Z,52.68
2018-11-05T10:55:01.149Z,51.81
2018-11-05T10:57:29.792Z,52.76
2018-11-05T10:59:58.340Z,52.47
2018-11-05T11:02:32.172Z,52.47
2018-11-05T11:05:00.736Z,51.61
2018-11-05T11:07:29.933Z,51.33
2018-11-05T11:09:59.097Z,50.59
2018-11-05T11:12:28.286Z,50.28
2018-11-05T11:14:57.548Z,50.98
2018-11-05T11:17:26.703Z,50.82
2018-11-05T11:19:55.903Z,49.25
2018-11-05T11:22:25.116Z,49.74
2018-11-05T11:24:54.308Z,49.50
2018-11-05T11:27:23.520Z,48.82
2018-11-05T11:29:52.698Z,48.26
2018-11-05T11:32:22.202Z,50.25
2018-11-05T11:34:51.406Z,49.55
2018-11-05T11:37:20.719Z,50.75
2018-11-05T11:39:49.782Z,50.14
2018-11-05T11:42:19.035Z,50.91
2018-11-05T11:44:48.348Z,51.18
2018-11-05T11:47:17.456Z,50.85
2018-11-05T11:49:46.672Z,51.69
2018-11-05T11:52:15.866Z,52.35
2018-11-05T11:54:44.346Z,53.27
2018-11-05T11:57:13.525Z,54.44
2018-11-05T11:59:42.357Z,55.11
2018-11-05T12:02:16.906Z,55.66
2018-11-05T12:04:45.478Z,56.38
2018-11-05T12:07:14.165Z,56.33
2018-11-05T12:09:42.669Z,55.49
2018-11-05T12:12:12.509Z,56.64
2018-11-05T12:14:41.864Z,56.16
2018-11-05T12:17:10.872Z,56.23
2018-11-05T12:19:39.985Z,55.65
2018-11-05T12:22:09.158Z,56.02
2018-11-05T12:24:38.489Z,57.03
2018-11-05T12:27:07.473Z,58.14
2018-11-05T12:29:36.665Z,57.93
2018-11-05T12:32:06.061Z,58.18
2018-11-05T12:34:35.309Z,56.32
2018-11-05T12:37:04.474Z,55.62
2018-11-05T12:39:33.643Z,55.07
2018-11-05T12:42:02.796Z,55.22
2018-11-05T12:44:32.015Z,53.96
2018-11-05T12:47:01.104Z,54.76
2018-11-05T12:49:30.317Z,53.67
2018-11-05T12:51:59.477Z,53.87
2018-11-05T12:54:28.748Z,53.29
2018-11-05T12:56:57.945Z,52.11
2018-11-05T12:59:27.165Z,52.17
2018-11-05T13:02:00.065Z,52.03
2018-11-05T13:04:29.252Z,53.14
2018-11-05T13:06:58.423Z,52.47
2018-11-05T13:09:27.633Z,51.30
2018-11-05T13:11:56.802Z,52.04
2018-11-05T13:14:26.013Z,52.11
2018-11-05T13:16:55.177Z,52.35
2018-11-05T13:19:24.373Z,51.24
2018-11-05T13:21:53.492Z,52.02
2018-11-05T13:24:22.645Z,50.98
2018-11-05T13:26:51.818Z,50.96
2018-11-05T13:29:21.260Z,51.99
2018-11-05T13:31:50.394Z,51.79
2018-11-05T13:34:19.605Z,52.26
2018-11-05T13:36:48.911Z,53.50
2018-11-05T13:39:17.944Z,54.62
2018-11-05T13:41:47.153Z,54.46
2018-11-05T13:44:16.277Z,54.67
2018-11-05T13:46:45.757Z,54.64
2018-11-05T13:49:14.738Z,53.99
2018-11-05T13:51:43.820Z,55.14
2018-11-05T13:54:12.969Z,53.58
2018-11-05T13:56:42.118Z,54.48
2018-11-05T13:59:11.313Z,53.44
2018-11-05T14:01:40.499Z,54.40
2018-11-05T14:04:09.645Z,54.16
2018-11-05T14:06:38.806Z,54.14
2018-11-05T14:09:09.189Z,55.01
2018-11-05T14:11:38.365Z,54.46
2018-11-05T14:14:07.556Z,54.01
2018-11-05T14:16:36.909Z,54.18
2018-11-05T14:19:06.262Z,54.43
2018-11-05T14:21:35.433Z,54.95
2018-11-05T14:24:04.822Z,56.28
2018-11-05T14:26:34.015Z,56.48
2018-11-05T14:29:03.481Z,56.45
2018-11-05T14:31:32.690Z,57.02
2018-11-05T14:34:01.923Z,58.00
2018-11-05T14:36:31.052Z,58.58
2018-11-05T14:39:00.168Z,60.67
2018-11-05T14:41:29.305Z,61.42
2018-11-05T14:43:58.518Z,63.08
2018-11-05T14:46:27.683Z,63.01
2018-11-05T14:48:56.813Z,64.49
2018-11-05T14:51:25.984Z,64.39
2018-11-05T14:53:55.194Z,65.04
2018-11-05T14:56:24.395Z,65.18
2018-11-05T14:58:53.533Z,65.48
2018-11-05T15:01:22.696Z,65.70
2018-11-05T15:03:52.065Z,66.66
2018-11-05T15:06:21.202Z,67.60
2018-11-05T15:08:50.324Z,67.91
2018-11-05T15:11:19.538Z,68.00
2018-11-05T15:13:48.689Z,68.40
2018-11-05T15:16:17.862Z,67.83
2018-11-05T15:18:47.397Z,68.62
2018-11-05T15:21:16.265Z,68.97
2018-11-05T15:23:45.433Z,70.57
2018-11-05T15:26:15.091Z,70.94
2018-11-05T15:28:44.189Z,71.08
2018-11-05T15:31:13.354Z,71.64
2018-11-05T15:33:43.037Z,71.54
2018-11-05T15:36:12.361Z,71.56
2018-11-05T15:38:41.567Z,72.14
2018-11-05T15:41:10.752Z,72.12
2018-11-05T15:43:39.947Z,72.58
2018-11-05T15:46:09.354Z,72.82
2018-11-05T15:48:38.538Z,72.57
2018-11-05T15:51:07.803Z,71.67
2018-11-05T15:53:37.253Z,71.68
2018-11-05T15:56:06.029Z,71.92
2018-11-05T15:58:35.201Z,72.01
2018-11-05T16:01:04.359Z,71.29
2018-11-05T16:03:33.632Z,72.07
2018-11-05T16:06:02.874Z,73.11
2018-11-05T16:08:32.086Z,72.40
2018-11-05T16:11:01.278Z,72.50
2018-11-05T16:13:30.499Z,72.86
2018-11-05T16:15:59.731Z,73.10
2018-11-05T16:18:29.239Z,73.19
2018-11-05T16:20:58.505Z,73.61
2018-11-05T16:23:27.750Z,72.40
2018-11-05T16:25:57.005Z,72.79
2018-11-05T16:28:26.147Z,72.20
2018-11-05T16:30:55.334Z,68.55
2018-11-05T16:33:24.542Z,65.70
2018-11-05T16:35:53.713Z,66.13
2018-11-05T16:38:23.200Z,65.00
2018-11-05T16:40:52.353Z,63.71
2018-11-05T16:43:21.545Z,62.34
2018-11-05T16:45:50.781Z,63.17
2018-11-05T16:48:19.938Z,61.61
2018-11-05T16:50:49.389Z,62.13
2018-11-05T16:53:18.747Z,62.01
2018-11-05T16:55:47.917Z,63.23
2018-11-05T16:58:17.089Z,61.86
2018-11-05T17:00:46.361Z,62.87
2018-11-05T17:03:15.452Z,61.22
2018-11-05T17:05:44.531Z,60.12
2018-11-05T17:08:13.701Z,60.36
2018-11-05T17:10:42.882Z,60.09
2018-11-05T17:13:12.123Z,60.51
2018-11-05T17:15:41.322Z,62.04
2018-11-05T17:18:10.469Z,62.87
2018-11-05T17:20:39.618Z,63.18
2018-11-05T17:23:08.829Z,61.92
2018-11-05T17:25:38.022Z,59.86
2018-11-05T17:28:07.178Z,59.94
2018-11-05T17:30:36.421Z,59.63
2018-11-05T17:33:06.171Z,58.86
2018-11-05T17:35:35.329Z,56.30
2018-11-05T17:38:04.525Z,55.14
2018-11-05T17:40:33.810Z,55.53
2018-11-05T17:43:02.976Z,54.06
2018-11-05T17:45:32.189Z,52.63
2018-11-05T17:48:00.728Z,52.68
2018-11-05T17:50:29.890Z,51.37
2018-11-05T17:52:59.041Z,50.71
2018-11-05T17:55:28.242Z,50.84
2018-11-05T17:57:57.442Z,50.75
2018-11-05T18:00:26.659Z,51.19
2018-11-05T18:02:55.841Z,49.79
2018-11-05T18:05:25.094Z,50.79
2018-11-05T18:07:54.257Z,51.11
2018-11-05T18:10:23.442Z,50.76
2018-11-05T18:12:52.641Z,51.54
2018-11-05T18:15:21.817Z,51.65
2018-11-05T18:17:50.989Z,50.67
2018-11-05T18:20:20.133Z,51.02
2018-11-05T18:22:49.331Z,50.21
2018-11-05T18:25:19.729Z,51.46
2018-11-05T18:27:48.891Z,51.50
2018-11-05T18:30:18.761Z,51.22
2018-11-05T18:32:48.265Z,51.29
2018-11-05T18:35:17.972Z,51.84
2018-11-05T18:37:49.623Z,51.90
2018-11-05T18:40:18.789Z,51.90
2018-11-05T18:42:47.972Z,52.10
2018-11-05T18:45:17.209Z,52.84
2018-11-05T18:47:46.428Z,54.27
2018-11-05T18:50:16.370Z,53.38
2018-11-05T18:52:45.754Z,52.89
2018-11-05T18:55:16.252Z,55.34
2018-11-05T18:57:45.501Z,53.19
2018-11-05T19:00:22.671Z,53.41
2018-11-05T19:02:52.760Z,53.52
2018-11-05T19:05:22.789Z,54.15
2018-11-05T19:07:51.990Z,53.67
2018-11-05T19:10:21.176Z,53.64
2018-11-05T19:12:51.196Z,53.92
2018-11-05T19:15:20.682Z,54.06
2018-11-05T19:17:50.523Z,53.55
2018-11-05T19:20:19.978Z,53.04
2018-11-05T19:22:49.251Z,53.15
2018-11-05T19:25:18.600Z,52.70
2018-11-05T19:27:47.800Z,53.46
2018-11-05T19:30:19.935Z,53.09
2018-11-05T19:32:49.090Z,54.29
2018-11-05T19:35:18.307Z,53.96
2018-11-05T19:37:47.550Z,56.42
2018-11-05T19:40:17.625Z,56.28
2018-11-05T19:42:47.609Z,57.98
2018-11-05T19:45:18.649Z,57.00
2018-11-05T19:47:47.798Z,57.78
2018-11-05T19:50:18.300Z,57.86
2018-11-05T19:52:48.832Z,58.56
2018-11-05T19:55:18.474Z,58.20
2018-11-05T19:57:48.487Z,58.62
2018-11-05T20:00:19.436Z,58.71
2018-11-05T20:02:49.248Z,59.73
2018-11-05T20:05:18.741Z,59.32
2018-11-05T20:07:48.237Z,59.96
2018-11-05T20:10:17.429Z,58.23
2018-11-05T20:12:47.002Z,56.63
2018-11-05T20:15:16.433Z,56.86
2018-11-05T20:17:46.433Z,54.24
2018-11-05T20:20:16.837Z,54.80
2018-11-05T20:22:46.179Z,53.56
2018-11-05T20:25:15.306Z,53.04
2018-11-05T20:27:44.713Z,54.04
2018-11-05T20:30:17.790Z,53.54
2018-11-05T20:32:48.458Z,53.55
2018-11-05T20:35:17.181Z,53.55
2018-11-05T20:37:46.413Z,53.21
2018-11-05T20:40:17.076Z,53.06
2018-11-05T20:42:47.311Z,53.53
2018-11-05T20:45:17.259Z,54.25
2018-11-05T20:47:46.446Z,54.04
2018-11-05T20:50:16.310Z,53.86
2018-11-05T20:52:45.485Z,53.98
2018-11-05T20:55:15.857Z,52.75
2018-11-05T20:57:45.360Z,52.85
2018-11-05T21:00:15.857Z,52.52
2018-11-05T21:02:45.050Z,52.50
2018-11-05T21:05:14.229Z,52.35
2018-11-05T21:07:43.973Z,52.06
2018-11-05T21:10:19.836Z,52.26
2018-11-05T21:12:48.985Z,51.60
2018-11-05T21:15:20.614Z,51.95
2018-11-05T21:17:51.183Z,51.13
2018-11-05T21:20:20.337Z,51.38
2018-11-05T21:22:50.297Z,50.94
2018-11-05T21:25:19.314Z,51.32
2018-11-05T21:27:48.500Z,51.25
2018-11-05T21:30:19.111Z,51.17
2018-11-05T21:32:48.231Z,51.12
2018-11-05T21:35:18.678Z,50.91
2018-11-05T21:37:47.832Z,50.14
2018-11-05T21:40:17.733Z,50.85
2018-11-05T21:42:46.877Z,50.23
2018-11-05T21:45:17.009Z,50.77
2018-11-05T21:47:46.563Z,50.50
2018-11-05T21:50:16.975Z,50.71
2018-11-05T21:52:46.425Z,51.23
2018-11-05T21:55:15.868Z,51.85
2018-11-05T21:57:46.349Z,50.93
2018-11-05T22:00:22.117Z,51.24
2018-11-05T22:03:10.417Z,51.98
2018-11-05T22:05:39.557Z,52.25
2018-11-05T22:08:08.690Z,51.85
2018-11-05T22:10:37.849Z,52.41
2018-11-05T22:13:07.027Z,52.77
2018-11-05T22:15:40.848Z,53.20
2018-11-05T22:18:10.030Z,53.03
2018-11-05T22:20:39.229Z,52.47
2018-11-05T22:23:08.603Z,52.90
2018-11-05T22:25:37.767Z,52.17
2018-11-05T22:28:07.141Z,52.69
2018-11-05T22:30:36.309Z,52.70
2018-11-05T22:33:05.956Z,52.92
2018-11-05T22:35:35.316Z,53.12
2018-11-05T22:38:04.492Z,53.99
2018-11-05T22:40:33.639Z,54.61
2018-11-05T22:43:02.740Z,54.39
2018-11-05T22:45:31.912Z,54.21
2018-11-05T22:48:01.073Z,53.46
2018-11-05T22:50:30.379Z,55.14
2018-11-05T22:52:59.436Z,55.02
2018-11-05T22:55:28.616Z,55.02
2018-11-05T22:57:57.820Z,54.42
2018-11-05T23:00:32.332Z,55.04
2018-11-05T23:03:06.781Z,55.05
2018-11-05T23:05:35.941Z,55.14
2018-11-05T23:08:05.094Z,55.70
2018-11-05T23:10:34.244Z,55.00
2018-11-05T23:13:03.437Z,54.47
2018-11-05T23:15:32.925Z,54.89
2018-11-05T23:18:02.081Z,54.19
2018-11-05T23:20:31.245Z,54.59
2018-11-05T23:23:00.472Z,54.82
2018-11-05T23:25:29.639Z,54.95
2018-11-05T23:27:58.821Z,55.27
2018-11-05T23:30:27.988Z,55.39
2018-11-05T23:32:57.155Z,55.28
2018-11-05T23:35:26.302Z,55.83
2018-11-05T23:37:55.461Z,55.27
2018-11-05T23:40:24.905Z,55.92
2018-11-05T23:42:54.054Z,56.85
2018-11-05T23:45:23.206Z,56.17
2018-11-05T23:47:52.371Z,57.44
2018-11-05T23:50:21.515Z,56.59
2018-11-05T23:52:51.029Z,56.12
2018-11-05T23:55:20.176Z,57.01
2018-11-05T23:57:49.313Z,57.20
